Terminal Aerodrome Forecast
Issued by NWS Charleston, WV

Home | Current Version | Previous Version | Text Only | Print | Product List | Glossary On
Versions: 1 2 3 4 5 6 7 8 9 10 11 12 13 14 15 16 17 18 19 20 21 22 23 24
647
FTUS41 KRLX 241742
TAFPKB
TAF
KPKB 241742Z 2418/2518 13004KT P6SM FEW018 BKN026 OVC035
     FM241900 12006KT 4SM SHRA OVC027
     FM242000 12007KT 2SM TSRA OVC025CB
     FM242200 12008KT 3SM SHRA OVC035
     FM250500 14006KT 5SM BR OVC019
     FM250800 19008KT P6SM BKN008
     FM251300 20008KT P6SM BKN011=

USA.gov is the U.S. government's official web portal to all federal, state and local government web resources and services.